Agricola, MS

4:59 PM CST on November 27, 2014 (GMT -0600)
Arena | Change Station
CLOSE
Current Station
Personal Weather Station
Location: Moss Point, MS
Elevation: 130 ft
Nearby Weather Stations

Elev 130 ft 30.63 °N, 88.42 °W | Updated 6 minutes ago

Clear
Clear
52.1 °F
Feels Like 52.1 °F
N
4.0
Wind Variable Wind from NNW
Gusts 4.0 mph

Today
High -- | Low -- °F
--% Chance of Precip.
Yesterday
High -- | Low -- °F
Precip. -- in
6:30 AM 4:52 PM
Waxing Crescent, 33% visible
Pressure 30.38 in
Visibility 10.0 miles
Clouds Clear
Dew Point 34 °F
Humidity 51%
Rainfall 0.00 in
Snow Depth Not available.
UV 0 out of 12
Pollen 2.10 out of 12
Air Quality Not available.
Flu Activity Not available.
METAR KMOB 272156Z 33011G16KT 10SM CLR 12/M01 A3038 RMK AO2 SLP288 T01221011

More Conditions Fewer Conditions

Pressure 30.38 in
Visibility 10.0 miles
Clouds Clear
Dew Point 34 °F
Humidity 51%
Rainfall 0.00 in
Snow Depth Not available.
UV 0 out of 12
Pollen 2.10 out of 12
Air Quality Not available.
Flu Activity Not available.
METAR KMOB 272156Z 33011G16KT 10SM CLR 12/M01 A3038 RMK AO2 SLP288 T01221011

More Conditions Fewer Conditions

10-Day Weather Forecast

Almanac

Astronomy

Nov. 27, 2014 Rise Set
Actual Time
Civil Twilight
Nautical Twilight
Astronomical Twilight
Moon
Length of Visible Light
Length of Day
Tomorrow will be .
, % of the Moon is Illuminated

Today's Extremes

State Highs State Lows

Community

WunderPhotos

Upload Photos

1,774,125 photos uploaded!

WunderBlogs® & News

Nearby

Air Quality

  Air Quality AQ Index Pollutant
Not available.

Snow Depth

Station Depth Elevation

Earthquake Activity

City Distance Mag. Time & Date
Minimum magnitude displayed is 2.5.

Coastal Water Temperatures

Place Temperature

Nearby Weather Stations